createdAt,value
2019-03-16T00:03:18.952Z,100698.92
2019-03-16T00:06:42.047Z,100704.84
2019-03-16T00:10:05.520Z,100691.13
2019-03-16T00:13:28.714Z,100694.87
2019-03-16T00:16:52.943Z,100701.77
2019-03-16T00:20:16.043Z,100706.07
2019-03-16T00:23:39.197Z,100713.66
2019-03-16T00:27:02.440Z,100713.23
2019-03-16T00:30:25.560Z,100715.80
2019-03-16T00:33:48.747Z,100727.20
2019-03-16T00:37:11.887Z,100717.98
2019-03-16T00:40:35.046Z,100721.65
2019-03-16T00:43:58.285Z,100724.50
2019-03-16T00:47:21.483Z,100731.84
2019-03-16T00:50:44.579Z,100724.03
2019-03-16T00:54:07.772Z,100720.61
2019-03-16T00:57:31.947Z,100719.05
2019-03-16T01:00:55.346Z,100730.41
2019-03-16T01:04:18.612Z,100730.28
2019-03-16T01:07:41.772Z,100734.78
2019-03-16T01:11:04.863Z,100726.62
2019-03-16T01:14:27.981Z,100730.42
2019-03-16T01:17:51.217Z,100738.80
2019-03-16T01:21:14.343Z,100735.75
2019-03-16T01:24:37.525Z,100726.86
2019-03-16T01:28:00.999Z,100736.45
2019-03-16T01:31:24.148Z,100735.21
2019-03-16T01:34:47.248Z,100739.84
2019-03-16T01:38:10.696Z,100743.81
2019-03-16T01:41:34.158Z,100741.92
2019-03-16T01:44:57.249Z,100750.14
2019-03-16T01:48:20.693Z,100746.56
2019-03-16T01:51:44.245Z,100743.53
2019-03-16T01:55:07.671Z,100743.98
2019-03-16T01:58:30.813Z,100731.63
2019-03-16T02:01:53.897Z,100737.15
2019-03-16T02:05:16.992Z,100737.53
2019-03-16T02:08:40.594Z,100738.40
2019-03-16T02:12:03.873Z,100732.63
2019-03-16T02:15:26.926Z,100730.53
2019-03-16T02:18:50.359Z,100734.51
2019-03-16T02:22:13.438Z,100739.20
2019-03-16T02:25:36.531Z,100735.48
2019-03-16T02:28:59.757Z,100737.42
2019-03-16T02:32:23.187Z,100735.44
2019-03-16T02:35:46.539Z,100735.35
2019-03-16T02:39:09.685Z,100731.92
2019-03-16T02:42:32.940Z,100729.02
2019-03-16T02:45:56.125Z,100724.30
2019-03-16T02:49:19.381Z,100726.16
2019-03-16T02:52:42.608Z,100724.59
2019-03-16T02:56:05.937Z,100706.83
2019-03-16T02:59:29.301Z,100701.94
2019-03-16T03:02:52.433Z,100700.20
2019-03-16T03:06:15.701Z,100706.25
2019-03-16T03:09:38.828Z,100717.11
2019-03-16T03:13:02.040Z,100716.91
2019-03-16T03:16:25.125Z,100697.41
2019-03-16T03:19:48.548Z,100684.76
2019-03-16T03:23:11.824Z,100675.31
2019-03-16T03:26:35.024Z,100682.15
2019-03-16T03:29:58.393Z,100699.52
2019-03-16T03:33:21.537Z,100697.97
2019-03-16T03:36:44.994Z,100699.92
2019-03-16T03:40:08.235Z,100696.12
2019-03-16T03:43:31.541Z,100698.28
2019-03-16T03:46:54.677Z,100703.07
2019-03-16T03:50:17.830Z,100696.07
2019-03-16T03:53:41.512Z,100692.73
2019-03-16T03:57:05.089Z,100693.38
2019-03-16T04:00:28.242Z,100694.52
2019-03-16T04:03:51.390Z,100691.55
2019-03-16T04:07:14.653Z,100685.69
2019-03-16T04:10:37.813Z,100694.45
2019-03-16T04:14:01.016Z,100682.80
2019-03-16T04:17:24.121Z,100686.82
2019-03-16T04:20:47.559Z,100691.93
2019-03-16T04:24:11.089Z,100698.48
2019-03-16T04:27:34.259Z,100694.70
2019-03-16T04:30:57.662Z,100687.24
2019-03-16T04:34:29.024Z,100691.66
2019-03-16T04:37:46.235Z,100690.69
2019-03-16T04:41:09.399Z,100683.09
2019-03-16T04:44:32.638Z,100680.89
2019-03-16T04:47:55.736Z,100676.55
2019-03-16T04:51:19.146Z,100675.51
2019-03-16T04:54:42.360Z,100675.98
2019-03-16T04:58:05.558Z,100681.00
2019-03-16T05:01:28.760Z,100674.45
2019-03-16T05:04:52.143Z,100675.41
2019-03-16T05:08:15.294Z,100676.57
2019-03-16T05:11:38.425Z,100675.42
2019-03-16T05:15:01.652Z,100674.44
2019-03-16T05:18:25.183Z,100676.85
2019-03-16T05:21:48.375Z,100673.69
2019-03-16T05:25:11.607Z,100671.00
2019-03-16T05:28:34.757Z,100668.30
2019-03-16T05:31:58.195Z,100676.27
2019-03-16T05:35:21.288Z,100667.34
2019-03-16T05:38:44.572Z,100667.42
2019-03-16T05:42:07.733Z,100669.47
2019-03-16T05:45:34.003Z,100665.61
2019-03-16T05:48:57.154Z,100668.70
2019-03-16T05:52:20.587Z,100663.55
2019-03-16T05:55:43.913Z,100665.61
2019-03-16T05:59:07.079Z,100656.01
2019-03-16T06:02:30.253Z,100651.92
2019-03-16T06:05:55.122Z,100653.77
2019-03-16T06:09:18.339Z,100663.11
2019-03-16T06:12:46.311Z,100657.08
2019-03-16T06:16:06.664Z,100667.07
2019-03-16T06:19:30.043Z,100656.39
2019-03-16T06:22:53.274Z,100663.39
2019-03-16T06:26:18.143Z,100656.98
2019-03-16T06:29:41.348Z,100652.16
2019-03-16T06:33:06.031Z,100653.14
2019-03-16T06:36:29.157Z,100635.16
2019-03-16T06:39:53.138Z,100650.53
2019-03-16T06:43:16.305Z,100631.42
2019-03-16T06:46:39.652Z,100639.77
2019-03-16T06:50:03.395Z,100640.63
2019-03-16T06:53:26.608Z,100627.61
2019-03-16T06:56:52.280Z,100623.84
2019-03-16T07:00:16.695Z,100644.09
2019-03-16T07:03:39.813Z,100627.18
2019-03-16T07:07:03.565Z,100616.42
2019-03-16T07:10:26.624Z,100610.80
2019-03-16T07:13:52.262Z,100614.94
2019-03-16T07:17:21.814Z,100605.98
2019-03-16T07:20:45.342Z,100604.64
2019-03-16T07:24:08.999Z,100605.08
2019-03-16T07:27:32.207Z,100594.06
2019-03-16T07:30:57.423Z,100596.27
2019-03-16T07:34:23.609Z,100587.97
2019-03-16T07:37:52.147Z,100586.45
2019-03-16T07:41:17.771Z,100584.64
2019-03-16T07:44:40.947Z,100583.78
2019-03-16T07:48:04.095Z,100578.54
2019-03-16T07:51:27.274Z,100575.95
2019-03-16T07:54:50.389Z,100565.99
2019-03-16T07:58:13.492Z,100577.33
2019-03-16T08:01:36.706Z,100565.00
2019-03-16T08:04:59.983Z,100575.91
2019-03-16T08:08:23.134Z,100579.20
2019-03-16T08:11:46.237Z,100593.83
2019-03-16T08:15:09.482Z,100602.23
2019-03-16T08:18:32.773Z,100612.64
2019-03-16T08:21:56.221Z,100604.67
2019-03-16T08:25:19.468Z,100609.69
2019-03-16T08:28:42.604Z,100621.55
2019-03-16T08:32:06.718Z,100607.52
2019-03-16T08:35:29.914Z,100614.44
2019-03-16T08:38:53.084Z,100610.42
2019-03-16T08:42:16.635Z,100621.78
2019-03-16T08:45:39.778Z,100626.73
2019-03-16T08:49:03.084Z,100605.65
2019-03-16T08:52:26.223Z,100605.77
2019-03-16T08:55:49.412Z,100596.89
2019-03-16T08:59:12.694Z,100592.68
2019-03-16T09:02:35.890Z,100586.98
2019-03-16T09:05:59.432Z,100582.27
2019-03-16T09:09:22.606Z,100584.88
2019-03-16T09:12:54.944Z,100590.33
2019-03-16T09:16:10.884Z,100577.59
2019-03-16T09:19:34.006Z,100585.31
2019-03-16T09:22:57.046Z,100571.82
2019-03-16T09:26:20.489Z,100560.20
2019-03-16T09:29:43.705Z,100567.00
2019-03-16T09:33:06.846Z,100554.59
2019-03-16T09:36:30.099Z,100573.09
2019-03-16T09:39:53.198Z,100589.70
2019-03-16T09:43:16.924Z,100576.33
2019-03-16T09:46:40.236Z,100560.03
2019-03-16T09:50:03.630Z,100565.52
2019-03-16T09:53:26.723Z,100564.05
2019-03-16T09:57:00.524Z,100560.73
2019-03-16T10:00:15.316Z,100563.02
2019-03-16T10:03:38.457Z,100576.24
2019-03-16T10:07:01.740Z,100547.76
2019-03-16T10:10:24.902Z,100558.20
2019-03-16T10:13:48.025Z,100552.30
2019-03-16T10:17:11.265Z,100552.30
2019-03-16T10:20:34.798Z,100547.33
2019-03-16T10:23:58.013Z,100533.02
2019-03-16T10:27:21.148Z,100537.69
2019-03-16T10:30:45.212Z,100529.27
2019-03-16T10:34:08.491Z,100533.98
2019-03-16T10:37:31.936Z,100531.09
2019-03-16T10:40:55.089Z,100540.06
2019-03-16T10:44:19.299Z,100516.73
2019-03-16T10:47:42.598Z,100532.95
2019-03-16T10:51:05.925Z,100518.19
2019-03-16T10:54:29.148Z,100516.23
2019-03-16T10:57:52.340Z,100508.88
2019-03-16T11:01:15.563Z,100516.47
2019-03-16T11:04:38.794Z,100509.23
2019-03-16T11:08:02.319Z,100515.99
2019-03-16T11:11:25.545Z,100523.60
2019-03-16T11:14:48.819Z,100525.95
2019-03-16T11:18:11.940Z,100517.95
2019-03-16T11:21:35.171Z,100501.85
2019-03-16T11:24:58.369Z,100514.88
2019-03-16T11:28:21.476Z,100516.48
2019-03-16T11:31:44.659Z,100515.52
2019-03-16T11:35:08.993Z,100525.84
2019-03-16T11:38:32.151Z,100520.04
2019-03-16T11:41:55.588Z,100513.41
2019-03-16T11:45:18.761Z,100515.25
2019-03-16T11:48:41.824Z,100502.71
2019-03-16T11:52:05.367Z,100530.14
2019-03-16T11:55:28.489Z,100522.44
2019-03-16T11:58:51.662Z,100506.72
2019-03-16T12:02:14.774Z,100503.95
2019-03-16T12:05:37.903Z,100530.02
2019-03-16T12:09:01.059Z,100513.20
2019-03-16T12:12:24.323Z,100498.20
2019-03-16T12:15:47.489Z,100505.83
2019-03-16T12:19:10.628Z,100515.31
2019-03-16T12:22:33.809Z,100498.34
2019-03-16T12:25:56.955Z,100500.30
2019-03-16T12:29:20.374Z,100499.75
2019-03-16T12:32:43.596Z,100502.94
2019-03-16T12:36:06.710Z,100486.73
2019-03-16T12:39:29.821Z,100482.66
2019-03-16T12:42:52.880Z,100476.12
2019-03-16T12:46:15.994Z,100470.45
2019-03-16T12:49:39.126Z,100470.13
2019-03-16T12:53:02.336Z,100458.53
2019-03-16T12:56:25.617Z,100466.66
2019-03-16T12:59:48.904Z,100476.52
2019-03-16T13:03:12.334Z,100461.69
2019-03-16T13:06:35.595Z,100463.80
2019-03-16T13:09:58.720Z,100466.03
2019-03-16T13:13:21.919Z,100450.61
2019-03-16T13:16:45.239Z,100450.05
2019-03-16T13:20:09.025Z,100446.27
2019-03-16T13:23:32.394Z,100447.02
2019-03-16T13:26:55.525Z,100451.59
2019-03-16T13:30:18.953Z,100457.31
2019-03-16T13:33:42.083Z,100440.39
2019-03-16T13:37:05.256Z,100440.28
2019-03-16T13:40:28.426Z,100446.30
2019-03-16T13:43:51.882Z,100447.99
2019-03-16T13:47:15.110Z,100454.29
2019-03-16T13:50:38.250Z,100436.20
2019-03-16T13:54:01.871Z,100440.38
2019-03-16T13:57:25.120Z,100440.30
2019-03-16T14:00:48.318Z,100423.09
2019-03-16T14:04:12.016Z,100420.33
2019-03-16T14:07:35.325Z,100415.94
2019-03-16T14:10:58.571Z,100415.28
2019-03-16T14:14:21.971Z,100411.77
2019-03-16T14:17:45.173Z,100412.62
2019-03-16T14:21:08.781Z,100414.48
2019-03-16T14:24:32.084Z,100404.89
2019-03-16T14:27:55.540Z,100400.56
2019-03-16T14:31:18.704Z,100393.18
2019-03-16T14:34:41.814Z,100396.91
2019-03-16T14:38:05.292Z,100396.87
2019-03-16T14:41:28.559Z,100396.77
2019-03-16T14:44:51.921Z,100392.70
2019-03-16T14:48:15.039Z,100392.69
2019-03-16T14:51:38.171Z,100382.61
2019-03-16T14:55:01.597Z,100384.86
2019-03-16T14:58:24.806Z,100382.38
2019-03-16T15:01:47.929Z,100370.73
2019-03-16T15:05:11.132Z,100371.94
2019-03-16T15:08:34.548Z,100369.87
2019-03-16T15:11:57.805Z,100365.92
2019-03-16T15:15:21.067Z,100360.16
2019-03-16T15:18:45.186Z,100365.02
2019-03-16T15:22:08.358Z,100348.87
2019-03-16T15:25:31.488Z,100335.22
2019-03-16T15:28:55.328Z,100331.83
2019-03-16T15:32:18.702Z,100329.13
2019-03-16T15:35:42.151Z,100318.21
2019-03-16T15:39:06.935Z,100317.72
2019-03-16T15:42:30.371Z,100311.13
2019-03-16T15:45:56.477Z,100310.83
2019-03-16T15:49:18.788Z,100298.93
2019-03-16T15:52:42.066Z,100301.30
2019-03-16T15:56:05.335Z,100305.61
2019-03-16T15:59:28.513Z,100287.48
2019-03-16T16:02:51.578Z,100285.06
2019-03-16T16:06:14.895Z,100277.47
2019-03-16T16:09:38.289Z,100268.14
2019-03-16T16:13:01.538Z,100260.50
2019-03-16T16:16:24.918Z,100256.23
2019-03-16T16:19:48.095Z,100260.38
2019-03-16T16:23:11.441Z,100252.54
2019-03-16T16:26:34.543Z,100249.58
2019-03-16T16:29:58.093Z,100251.40
2019-03-16T16:33:21.200Z,100244.61
2019-03-16T16:36:44.283Z,100245.55
2019-03-16T16:40:08.906Z,100245.25
2019-03-16T16:43:32.152Z,100245.27
2019-03-16T16:46:55.238Z,100236.36
2019-03-16T16:50:18.477Z,100236.01
2019-03-16T16:53:41.748Z,100231.38
2019-03-16T16:57:05.854Z,100234.88
2019-03-16T17:00:30.329Z,100230.96
2019-03-16T17:03:53.561Z,100235.07
2019-03-16T17:07:16.683Z,100235.80
2019-03-16T17:10:40.082Z,100238.41
2019-03-16T17:14:03.339Z,100229.84
2019-03-16T17:17:35.162Z,100231.11
2019-03-16T17:20:51.496Z,100231.92
2019-03-16T17:24:15.712Z,100225.39
2019-03-16T17:27:39.185Z,100221.16
2019-03-16T17:31:06.530Z,100216.55
2019-03-16T17:34:29.634Z,100213.08
2019-03-16T17:37:52.850Z,100217.81
2019-03-16T17:41:15.968Z,100218.31
2019-03-16T17:44:39.594Z,100199.53
2019-03-16T17:48:02.752Z,100199.70
2019-03-16T17:51:38.944Z,100184.51
2019-03-16T17:55:02.251Z,100186.86
2019-03-16T17:58:25.458Z,100187.72
2019-03-16T18:01:54.690Z,100182.00
2019-03-16T18:05:13.732Z,100182.39
2019-03-16T18:08:37.002Z,100184.14
2019-03-16T18:12:00.129Z,100185.48
2019-03-16T18:15:24.380Z,100178.94
2019-03-16T18:18:47.548Z,100190.02
2019-03-16T18:22:10.811Z,100175.09
2019-03-16T18:25:34.237Z,100179.02
2019-03-16T18:28:57.427Z,100170.56
2019-03-16T18:32:20.561Z,100171.67
2019-03-16T18:35:43.664Z,100169.49
2019-03-16T18:39:06.802Z,100166.49
2019-03-16T18:42:30.009Z,100168.88
2019-03-16T18:45:53.342Z,100163.52
2019-03-16T18:49:16.799Z,100170.47
2019-03-16T18:52:40.135Z,100155.95
2019-03-16T18:56:03.730Z,100164.06
2019-03-16T18:59:28.010Z,100165.04
2019-03-16T19:02:51.400Z,100158.87
2019-03-16T19:06:14.747Z,100159.06
2019-03-16T19:09:37.894Z,100157.47
2019-03-16T19:13:01.038Z,100158.80
2019-03-16T19:16:24.542Z,100154.37
2019-03-16T19:19:47.782Z,100145.87
2019-03-16T19:23:11.150Z,100143.34
2019-03-16T19:26:34.677Z,100140.33
2019-03-16T19:30:00.440Z,100129.91
2019-03-16T19:33:23.660Z,100123.24
2019-03-16T19:36:47.004Z,100127.95
2019-03-16T19:40:10.669Z,100119.84
2019-03-16T19:43:33.812Z,100111.48
2019-03-16T19:46:57.114Z,100100.39
2019-03-16T19:50:20.289Z,100099.45
2019-03-16T19:53:43.380Z,100092.20
2019-03-16T19:57:15.891Z,100098.27
2019-03-16T20:00:31.567Z,100093.84
2019-03-16T20:03:54.658Z,100085.29
2019-03-16T20:07:19.651Z,100070.30
2019-03-16T20:10:43.919Z,100059.57
2019-03-16T20:14:07.746Z,100062.77
2019-03-16T20:17:31.944Z,100068.44
2019-03-16T20:20:57.258Z,100055.28
2019-03-16T20:24:20.517Z,100044.64
2019-03-16T20:27:48.776Z,100042.69
2019-03-16T20:31:13.889Z,100048.83
2019-03-16T20:34:37.030Z,100045.67
2019-03-16T20:38:00.577Z,100042.47
2019-03-16T20:41:35.542Z,100030.53
2019-03-16T20:44:49.337Z,100031.61
2019-03-16T20:48:13.221Z,100038.92
2019-03-16T20:51:36.386Z,100036.40
2019-03-16T20:54:59.918Z,100016.81
2019-03-16T20:58:23.067Z,100002.11
2019-03-16T21:01:47.441Z,100003.98
2019-03-16T21:05:10.970Z,99999.77
2019-03-16T21:08:34.378Z,99995.06
2019-03-16T21:11:59.520Z,99986.53
2019-03-16T21:15:23.749Z,99987.68
2019-03-16T21:18:49.476Z,99992.31
2019-03-16T21:22:15.192Z,99966.59
2019-03-16T21:25:38.524Z,99968.14
2019-03-16T21:29:01.752Z,99967.78
2019-03-16T21:32:24.988Z,99956.48
2019-03-16T21:35:48.162Z,99946.75
2019-03-16T21:39:16.834Z,99952.95
2019-03-16T21:42:41.421Z,99962.48
2019-03-16T21:46:08.710Z,99957.99
2019-03-16T21:49:33.733Z,99943.77
2019-03-16T21:52:57.022Z,99942.84
2019-03-16T21:56:21.127Z,99937.15
2019-03-16T21:59:44.473Z,99935.91
2019-03-16T22:03:08.117Z,99928.50
2019-03-16T22:06:31.458Z,99921.76
2019-03-16T22:09:54.773Z,99908.45
2019-03-16T22:13:17.953Z,99915.59
2019-03-16T22:16:41.496Z,99915.27
2019-03-16T22:20:06.938Z,99906.41
2019-03-16T22:23:31.316Z,99920.22
2019-03-16T22:26:54.636Z,99902.39
2019-03-16T22:30:18.491Z,99886.70
2019-03-16T22:33:49.944Z,99890.70
2019-03-16T22:37:07.213Z,99878.44
2019-03-16T22:40:30.762Z,99889.33
2019-03-16T22:43:53.912Z,99886.45
2019-03-16T22:47:17.152Z,99884.86
2019-03-16T22:50:40.423Z,99873.20
2019-03-16T22:54:03.810Z,99876.92
2019-03-16T22:57:27.273Z,99870.94
2019-03-16T23:00:52.336Z,99876.29
2019-03-16T23:04:15.655Z,99870.20
2019-03-16T23:07:38.901Z,99863.53
2019-03-16T23:11:02.047Z,99862.98
2019-03-16T23:14:25.222Z,99861.53
2019-03-16T23:17:48.634Z,99849.16
2019-03-16T23:21:11.863Z,99841.48
2019-03-16T23:24:35.255Z,99840.95
2019-03-16T23:27:58.490Z,99839.76
2019-03-16T23:31:24.533Z,99834.52
2019-03-16T23:34:47.752Z,99836.67
2019-03-16T23:38:11.049Z,99815.20
2019-03-16T23:41:34.691Z,99819.55
2019-03-16T23:44:58.482Z,99816.80
2019-03-16T23:48:21.630Z,99806.70
2019-03-16T23:51:44.760Z,99811.16
2019-03-16T23:55:08.097Z,99806.67
2019-03-16T23:58:31.175Z,99790.88
